createdAt,value
2023-05-13T00:02:06.991Z,42.98
2023-05-13T00:04:38.685Z,43.00
2023-05-13T00:07:09.639Z,42.99
2023-05-13T00:09:40.908Z,42.88
2023-05-13T00:12:12.141Z,42.95
2023-05-13T00:39:19.493Z,42.79
2023-05-13T00:41:50.828Z,42.69
2023-05-13T00:44:22.612Z,42.71
2023-05-13T00:46:55.193Z,42.88
2023-05-13T00:49:26.176Z,42.96
2023-05-13T00:51:57.641Z,42.97
2023-05-13T00:54:28.984Z,43.09
2023-05-13T00:57:01.442Z,43.20
2023-05-13T00:59:33.329Z,43.41
2023-05-13T01:02:15.331Z,43.53
2023-05-13T01:04:52.028Z,43.69
2023-05-13T01:07:30.495Z,43.86
2023-05-13T01:10:10.457Z,44.01
2023-05-13T01:12:46.401Z,44.14
2023-05-13T01:15:22.760Z,44.39
2023-05-13T01:18:01.639Z,44.38
2023-05-13T01:20:34.601Z,44.55
2023-05-13T01:23:06.696Z,44.73
2023-05-13T01:25:39.732Z,44.70
2023-05-13T01:28:12.557Z,44.89
2023-05-13T01:30:45.026Z,44.97
2023-05-13T01:33:18.717Z,45.05
2023-05-13T01:35:51.819Z,45.10
2023-05-13T01:38:25.705Z,45.24
2023-05-13T01:41:00.231Z,45.25
2023-05-13T01:43:32.526Z,45.31
2023-05-13T01:46:03.899Z,45.39
2023-05-13T01:48:35.745Z,45.43
2023-05-13T01:51:08.107Z,45.53
2023-05-13T01:53:39.136Z,45.67
2023-05-13T01:56:12.787Z,45.59
2023-05-13T01:58:43.908Z,45.73
2023-05-13T02:01:14.967Z,45.82
2023-05-13T02:03:46.648Z,46.00
2023-05-13T02:06:17.826Z,45.97
2023-05-13T02:08:48.815Z,46.16
2023-05-13T02:11:19.807Z,46.02
2023-05-13T02:13:50.819Z,46.09
2023-05-13T02:16:23.796Z,46.08
2023-05-13T02:18:54.773Z,46.28
2023-05-13T02:21:32.238Z,46.28
2023-05-13T02:24:03.255Z,46.47
2023-05-13T02:26:34.267Z,46.50
2023-05-13T02:29:05.727Z,46.48
2023-05-13T02:31:37.078Z,46.74
2023-05-13T02:34:08.022Z,46.75
2023-05-13T02:36:39.022Z,46.80
2023-05-13T02:39:10.074Z,46.94
2023-05-13T02:41:41.201Z,46.80
2023-05-13T02:44:12.276Z,47.25
2023-05-13T02:46:44.296Z,47.62
2023-05-13T02:49:15.369Z,47.64
2023-05-13T02:51:46.430Z,47.73
2023-05-13T02:54:18.501Z,48.03
2023-05-13T02:56:49.500Z,48.10
2023-05-13T02:59:20.489Z,48.27
2023-05-13T03:01:51.739Z,48.47
2023-05-13T03:04:22.811Z,48.37
2023-05-13T03:06:54.227Z,48.21
2023-05-13T03:09:25.321Z,48.43
2023-05-13T03:11:56.780Z,48.53
2023-05-13T03:14:28.197Z,48.70
2023-05-13T03:17:00.275Z,48.80
2023-05-13T03:19:31.631Z,48.74
2023-05-13T03:22:02.595Z,48.74
2023-05-13T03:24:33.934Z,48.86
2023-05-13T03:27:05.677Z,48.78
2023-05-13T03:29:37.603Z,48.66
2023-05-13T03:32:09.365Z,48.78
2023-05-13T03:34:40.642Z,48.80
2023-05-13T03:37:12.037Z,48.88
2023-05-13T03:39:42.987Z,48.72
2023-05-13T03:42:14.475Z,48.57
2023-05-13T03:44:45.486Z,48.57
2023-05-13T03:47:16.375Z,48.56
2023-05-13T03:49:49.035Z,48.70
2023-05-13T03:52:20.057Z,48.73
2023-05-13T03:54:52.299Z,48.91
2023-05-13T03:57:23.225Z,48.99
2023-05-13T03:59:54.317Z,48.79
2023-05-13T04:02:26.615Z,48.94
2023-05-13T04:04:57.764Z,48.77
2023-05-13T04:07:29.669Z,49.00
2023-05-13T04:10:00.757Z,48.96
2023-05-13T04:12:33.462Z,49.10
2023-05-13T04:15:05.366Z,49.19
2023-05-13T04:17:36.456Z,49.28
2023-05-13T04:20:09.322Z,49.43
2023-05-13T04:22:40.293Z,49.47
2023-05-13T04:25:12.510Z,49.57
2023-05-13T04:27:47.494Z,49.93
2023-05-13T04:30:26.098Z,50.71
2023-05-13T04:32:57.582Z,50.82
2023-05-13T04:35:28.802Z,50.46
2023-05-13T04:38:06.865Z,49.53
2023-05-13T04:40:36.640Z,48.47
2023-05-13T04:43:12.126Z,46.93
2023-05-13T04:50:56.772Z,41.87
2023-05-13T04:53:29.141Z,39.69
2023-05-13T04:56:06.259Z,38.54
2023-05-13T04:58:37.423Z,38.02
2023-05-13T05:01:08.528Z,38.02
2023-05-13T05:03:41.732Z,37.99
2023-05-13T05:06:13.348Z,37.67
2023-05-13T05:08:45.149Z,37.60
2023-05-13T05:11:18.488Z,37.70
2023-05-13T05:13:49.777Z,38.54
2023-05-13T05:16:21.301Z,39.34
2023-05-13T05:18:52.945Z,39.37
2023-05-13T05:21:24.406Z,38.99
2023-05-13T05:23:55.543Z,38.18
2023-05-13T05:26:31.048Z,37.68
2023-05-13T05:29:02.484Z,36.83
2023-05-13T05:31:37.296Z,35.77
2023-05-13T05:34:09.817Z,34.45
2023-05-13T05:36:41.541Z,33.32
2023-05-13T05:39:13.107Z,32.68
2023-05-13T05:41:44.254Z,32.11
2023-05-13T05:44:16.221Z,31.17
2023-05-13T05:46:47.195Z,29.77
2023-05-13T05:49:27.820Z,28.78
2023-05-13T05:52:06.562Z,28.54
2023-05-13T05:54:46.497Z,28.66
2023-05-13T05:58:11.065Z,27.25
2023-05-13T06:00:43.153Z,26.50
2023-05-13T06:03:16.609Z,26.36
2023-05-13T06:06:01.751Z,26.21
2023-05-13T06:08:40.435Z,26.10
2023-05-13T06:11:13.888Z,26.09
2023-05-13T06:13:52.404Z,25.81
2023-05-13T06:16:24.168Z,25.20
2023-05-13T06:19:06.794Z,24.89
2023-05-13T06:21:43.268Z,24.42
2023-05-13T06:24:14.282Z,23.99
2023-05-13T06:26:45.641Z,23.60
2023-05-13T06:29:18.575Z,23.11
2023-05-13T06:31:54.378Z,22.92
2023-05-13T06:34:25.394Z,22.12
2023-05-13T06:36:56.676Z,21.66
2023-05-13T06:39:28.610Z,21.71
2023-05-13T06:45:03.663Z,21.05
2023-05-13T06:47:35.503Z,20.94
2023-05-13T06:50:08.420Z,20.67
2023-05-13T06:52:41.987Z,20.44
2023-05-13T06:55:24.665Z,20.81
2023-05-13T06:57:55.962Z,20.15
2023-05-13T07:03:54.985Z,19.81
2023-05-13T07:06:26.033Z,19.91
2023-05-13T07:08:58.834Z,19.39
2023-05-13T07:11:30.420Z,19.94
2023-05-13T07:14:01.440Z,20.11
2023-05-13T07:16:32.415Z,20.28
2023-05-13T07:19:03.467Z,20.60
2023-05-13T07:21:34.671Z,20.59
2023-05-13T07:24:06.425Z,20.99
2023-05-13T07:26:38.918Z,20.78
2023-05-13T07:29:09.962Z,20.35
2023-05-13T07:31:43.709Z,20.57
2023-05-13T07:34:14.857Z,20.35
2023-05-13T07:36:46.471Z,20.94
2023-05-13T07:39:18.801Z,21.16
2023-05-13T07:41:50.275Z,21.94
2023-05-13T07:44:21.278Z,21.70
2023-05-13T07:46:53.805Z,22.18
2023-05-13T07:49:25.138Z,22.59
2023-05-13T07:51:56.901Z,22.23
2023-05-13T07:54:27.876Z,21.79
2023-05-13T07:56:58.865Z,21.45
2023-05-13T07:59:30.163Z,21.45
2023-05-13T08:02:03.680Z,21.60
2023-05-13T08:04:41.337Z,21.96
2023-05-13T08:07:16.479Z,22.26
2023-05-13T08:09:48.585Z,22.18
2023-05-13T08:16:18.106Z,22.45
2023-05-13T08:19:17.153Z,22.08
2023-05-13T08:21:48.439Z,21.96
2023-05-13T08:24:20.901Z,22.29
2023-05-13T08:27:13.297Z,21.94
2023-05-13T08:30:03.161Z,22.06
2023-05-13T08:32:57.755Z,22.33
2023-05-13T08:35:45.320Z,22.58
2023-05-13T08:38:26.137Z,22.44
2023-05-13T08:53:28.641Z,22.27
2023-05-13T08:56:03.861Z,21.92
2023-05-13T08:58:38.778Z,21.74
2023-05-13T09:01:11.400Z,21.46
2023-05-13T09:03:59.385Z,21.19
2023-05-13T09:06:31.816Z,20.98
2023-05-13T09:09:00.221Z,21.12
2023-05-13T09:11:35.503Z,21.31
2023-05-13T09:14:11.376Z,21.55
2023-05-13T09:16:48.525Z,21.94
2023-05-13T09:19:28.705Z,22.21
2023-05-13T09:22:16.784Z,22.28
2023-05-13T09:25:00.198Z,22.15
2023-05-13T09:27:40.320Z,21.94
2023-05-13T09:34:51.547Z,22.13
2023-05-13T09:37:23.456Z,21.96
2023-05-13T09:39:54.924Z,21.94
2023-05-13T09:42:23.399Z,21.95
2023-05-13T09:44:51.991Z,21.74
2023-05-13T09:47:20.422Z,21.80
2023-05-13T09:49:56.764Z,21.97
2023-05-13T09:52:25.029Z,22.15
2023-05-13T09:54:56.244Z,21.74
2023-05-13T09:57:26.603Z,21.58
2023-05-13T09:59:58.768Z,21.56
2023-05-13T10:02:28.896Z,21.66
2023-05-13T10:04:57.687Z,21.61
2023-05-13T10:07:32.280Z,21.58
2023-05-13T10:10:04.283Z,21.56
2023-05-13T10:12:33.837Z,21.61
2023-05-13T10:15:03.173Z,22.07
2023-05-13T10:17:33.240Z,22.02
2023-05-13T10:20:04.611Z,21.91
2023-05-13T10:22:40.032Z,21.80
2023-05-13T10:25:10.378Z,22.14
2023-05-13T10:27:59.875Z,22.14
2023-05-13T10:30:55.290Z,22.05
2023-05-13T10:33:24.275Z,22.08
2023-05-13T10:40:20.941Z,22.40
2023-05-13T10:46:44.276Z,22.79
2023-05-13T10:49:15.932Z,22.86
2023-05-13T10:51:48.617Z,23.15
2023-05-13T10:54:21.548Z,23.40
2023-05-13T10:56:57.609Z,23.40
2023-05-13T10:59:29.870Z,23.55
2023-05-13T11:02:00.818Z,23.71
2023-05-13T11:04:29.235Z,23.74
2023-05-13T11:07:16.024Z,23.73
2023-05-13T11:09:50.836Z,23.70
2023-05-13T11:12:18.181Z,23.83
2023-05-13T11:14:46.795Z,23.78
2023-05-13T11:17:20.051Z,23.69
2023-05-13T11:19:50.832Z,23.72
2023-05-13T11:22:23.256Z,23.56
2023-05-13T11:25:06.940Z,23.50
2023-05-13T11:27:39.302Z,23.50
2023-05-13T11:30:21.706Z,23.56
2023-05-13T11:32:55.642Z,23.65
2023-05-13T11:35:25.951Z,23.79
2023-05-13T11:37:55.963Z,23.81
2023-05-13T11:40:27.235Z,23.91
2023-05-13T11:42:55.923Z,23.93
2023-05-13T11:45:26.303Z,24.13
2023-05-13T11:47:56.753Z,24.09
2023-05-13T11:50:29.412Z,23.90
2023-05-13T11:53:25.974Z,23.79
2023-05-13T11:57:02.937Z,23.72
2023-05-13T11:59:41.790Z,23.80
2023-05-13T12:03:10.259Z,24.00
2023-05-13T12:06:05.516Z,23.94
2023-05-13T12:08:34.068Z,24.06
2023-05-13T12:11:15.605Z,24.10
2023-05-13T12:13:46.507Z,24.05
2023-05-13T12:16:15.072Z,24.03
2023-05-13T12:18:55.839Z,24.13
2023-05-13T12:21:24.144Z,24.33
2023-05-13T12:23:52.445Z,24.29
2023-05-13T12:26:21.060Z,24.38
2023-05-13T12:28:49.321Z,24.27
2023-05-13T12:31:17.823Z,24.47
2023-05-13T12:33:48.772Z,24.21
2023-05-13T12:36:19.814Z,24.12
2023-05-13T12:39:00.657Z,24.04
2023-05-13T12:41:30.316Z,24.07
2023-05-13T12:44:00.255Z,24.19
2023-05-13T12:46:29.122Z,24.25
2023-05-13T12:48:58.637Z,24.10
2023-05-13T12:51:27.762Z,24.13
2023-05-13T12:53:57.823Z,24.05
2023-05-13T12:56:26.485Z,24.11
2023-05-13T12:58:55.013Z,24.10
2023-05-13T13:01:23.479Z,24.14
2023-05-13T13:03:51.898Z,23.88
2023-05-13T13:06:20.332Z,24.04
2023-05-13T13:08:48.749Z,24.00
2023-05-13T13:11:18.261Z,24.09
2023-05-13T13:13:47.871Z,24.04
2023-05-13T13:16:16.217Z,23.87
2023-05-13T13:18:44.614Z,23.96
2023-05-13T13:21:12.925Z,23.96
2023-05-13T13:23:41.722Z,24.13
2023-05-13T13:26:11.122Z,24.21
2023-05-13T13:28:39.367Z,24.35
2023-05-13T13:31:07.797Z,24.22
2023-05-13T13:33:38.927Z,24.05
2023-05-13T13:36:08.531Z,24.02
2023-05-13T13:38:37.135Z,24.03
2023-05-13T13:41:05.785Z,24.00
2023-05-13T13:43:34.230Z,24.00
2023-05-13T13:46:02.692Z,24.01
2023-05-13T13:48:31.078Z,23.98
2023-05-13T13:50:59.341Z,24.03
2023-05-13T13:53:27.582Z,24.17
2023-05-13T13:55:56.014Z,24.22
2023-05-13T13:58:24.400Z,24.45
2023-05-13T14:00:53.146Z,24.27
2023-05-13T14:03:21.556Z,24.53
2023-05-13T14:05:51.410Z,24.85
2023-05-13T14:08:19.874Z,24.66
2023-05-13T14:10:54.982Z,24.79
2023-05-13T14:13:23.242Z,24.80
2023-05-13T14:15:51.519Z,24.98
2023-05-13T14:18:20.305Z,24.89
2023-05-13T14:20:49.816Z,25.14
2023-05-13T14:23:18.726Z,25.27
2023-05-13T14:25:48.462Z,24.96
2023-05-13T14:28:19.376Z,24.89
2023-05-13T14:30:47.609Z,24.51
2023-05-13T14:33:15.809Z,24.51
2023-05-13T14:35:44.040Z,24.53
2023-05-13T14:38:12.207Z,24.63
2023-05-13T14:40:40.423Z,24.53
2023-05-13T14:43:10.683Z,24.81
2023-05-13T14:45:39.117Z,24.95
2023-05-13T14:48:07.511Z,25.25
2023-05-13T14:50:36.306Z,25.39
2023-05-13T14:53:04.533Z,25.64
2023-05-13T14:55:32.888Z,25.71
2023-05-13T14:58:01.215Z,25.61
2023-05-13T15:00:29.772Z,25.68
2023-05-13T15:02:58.393Z,25.73
2023-05-13T15:05:28.369Z,25.74
2023-05-13T15:07:58.071Z,25.74
2023-05-13T15:10:26.351Z,25.78
2023-05-13T15:12:54.576Z,25.89
2023-05-13T15:15:23.625Z,26.05
2023-05-13T15:17:52.215Z,26.13
2023-05-13T15:20:20.798Z,26.21
2023-05-13T15:22:49.285Z,26.16
2023-05-13T15:25:17.988Z,26.29
2023-05-13T15:27:46.488Z,26.22
2023-05-13T15:30:15.390Z,26.01
2023-05-13T15:32:43.734Z,25.87
2023-05-13T15:35:12.049Z,25.97
2023-05-13T15:37:42.804Z,25.92
2023-05-13T15:40:13.310Z,25.98
2023-05-13T15:42:41.555Z,26.07
2023-05-13T15:45:10.587Z,26.03
2023-05-13T15:47:38.876Z,26.05
2023-05-13T15:50:09.181Z,26.19
2023-05-13T15:52:37.550Z,26.42
2023-05-13T15:55:07.632Z,26.59
2023-05-13T15:57:35.852Z,26.75
2023-05-13T16:00:04.976Z,26.86
2023-05-13T16:02:38.490Z,27.00
2023-05-13T16:05:08.424Z,27.25
2023-05-13T16:07:36.628Z,27.45
2023-05-13T16:10:06.687Z,27.56
2023-05-13T16:12:34.956Z,27.84
2023-05-13T16:15:03.407Z,28.16
2023-05-13T16:17:32.329Z,28.28
2023-05-13T16:20:00.628Z,28.27
2023-05-13T16:22:32.175Z,28.48
2023-05-13T16:25:02.296Z,28.64
2023-05-13T16:27:31.956Z,28.85
2023-05-13T16:30:04.369Z,29.03
2023-05-13T16:32:32.875Z,29.29
2023-05-13T16:35:01.350Z,29.29
2023-05-13T16:37:30.146Z,29.77
2023-05-13T16:39:58.425Z,29.79
2023-05-13T16:42:26.900Z,29.95
2023-05-13T16:44:55.357Z,30.14
2023-05-13T16:47:23.738Z,30.03
2023-05-13T16:49:51.961Z,30.40
2023-05-13T16:52:23.157Z,30.51
2023-05-13T16:54:51.806Z,30.53
2023-05-13T16:57:21.818Z,30.62
2023-05-13T16:59:52.976Z,30.76
2023-05-13T17:02:42.595Z,31.05
2023-05-13T17:05:11.177Z,30.89
2023-05-13T17:07:39.736Z,30.73
2023-05-13T17:10:10.104Z,30.56
2023-05-13T17:12:38.388Z,30.50
2023-05-13T17:15:08.941Z,30.68
2023-05-13T17:17:37.203Z,30.91
2023-05-13T17:20:07.578Z,31.24
2023-05-13T17:22:35.819Z,30.87
2023-05-13T17:25:05.014Z,30.92
2023-05-13T17:27:34.373Z,30.87
2023-05-13T17:30:02.776Z,30.75
2023-05-13T17:32:32.013Z,30.90
2023-05-13T17:35:00.647Z,30.87
2023-05-13T17:37:28.829Z,30.79
2023-05-13T17:40:00.132Z,30.86
2023-05-13T17:42:29.779Z,30.64
2023-05-13T17:44:58.083Z,30.63
2023-05-13T17:47:26.426Z,30.53
2023-05-13T17:49:54.978Z,30.41
2023-05-13T17:52:23.237Z,30.34
2023-05-13T17:54:51.425Z,30.40
2023-05-13T17:57:20.780Z,30.32
2023-05-13T17:59:49.305Z,30.29
2023-05-13T18:02:17.599Z,30.31
2023-05-13T18:04:46.061Z,30.42
2023-05-13T18:07:14.333Z,30.34
2023-05-13T18:09:42.544Z,30.47
2023-05-13T18:12:11.096Z,30.68
2023-05-13T18:14:39.433Z,34.23
2023-05-13T18:17:07.649Z,35.35
2023-05-13T18:19:37.289Z,35.16
2023-05-13T18:22:08.088Z,34.32
2023-05-13T18:24:37.092Z,34.28
2023-05-13T18:27:06.388Z,34.02
2023-05-13T18:29:34.811Z,34.96
2023-05-13T18:32:04.738Z,36.93
2023-05-13T18:34:33.515Z,37.13
2023-05-13T18:37:17.710Z,37.35
2023-05-13T18:39:48.737Z,37.32
2023-05-13T18:42:17.178Z,36.96
2023-05-13T18:44:45.522Z,36.92
2023-05-13T18:47:24.627Z,37.28
2023-05-13T18:49:53.452Z,37.06
2023-05-13T18:52:29.288Z,37.31
2023-05-13T18:54:57.463Z,37.16
2023-05-13T18:57:27.705Z,36.90
2023-05-13T18:59:57.801Z,36.94
2023-05-13T19:02:29.306Z,36.90
2023-05-13T19:05:00.162Z,36.65
2023-05-13T19:07:28.928Z,36.94
2023-05-13T19:09:57.543Z,36.82
2023-05-13T19:12:30.874Z,36.97
2023-05-13T19:15:00.035Z,36.77
2023-05-13T19:17:28.874Z,36.90
2023-05-13T19:20:06.718Z,37.02
2023-05-13T19:22:38.579Z,37.20
2023-05-13T19:25:09.452Z,37.28
2023-05-13T19:27:40.926Z,37.32
2023-05-13T19:30:12.203Z,37.38
2023-05-13T19:32:46.494Z,37.59
2023-05-13T19:35:17.237Z,37.75
2023-05-13T19:37:45.682Z,37.92
2023-05-13T19:40:17.162Z,37.91
2023-05-13T19:42:46.272Z,37.80
2023-05-13T19:45:14.680Z,38.11
2023-05-13T19:47:43.050Z,37.95
2023-05-13T19:50:14.032Z,38.25
2023-05-13T19:52:43.226Z,38.20
2023-05-13T19:55:12.884Z,38.41
2023-05-13T19:57:42.404Z,38.36
2023-05-13T20:00:13.060Z,38.39
2023-05-13T20:02:41.468Z,38.70
2023-05-13T20:05:11.254Z,38.78
2023-05-13T20:07:39.924Z,38.93
2023-05-13T20:10:10.942Z,39.10
2023-05-13T20:12:40.480Z,39.43
2023-05-13T20:15:10.491Z,39.33
2023-05-13T20:17:39.262Z,39.49
2023-05-13T20:20:10.712Z,39.70
2023-05-13T20:22:38.913Z,39.92
2023-05-13T20:25:09.970Z,40.15
2023-05-13T20:27:38.359Z,40.29
2023-05-13T20:30:09.929Z,40.42
2023-05-13T20:32:38.494Z,40.65
2023-05-13T20:35:11.896Z,40.77
2023-05-13T20:37:40.405Z,41.06
2023-05-13T20:40:10.691Z,41.07
2023-05-13T20:42:38.870Z,41.26
2023-05-13T20:45:09.427Z,41.44
2023-05-13T20:47:37.947Z,41.41
2023-05-13T20:50:08.383Z,41.54
2023-05-13T20:52:42.217Z,41.74
2023-05-13T20:55:10.882Z,41.88
2023-05-13T20:57:39.834Z,41.93
2023-05-13T21:00:10.897Z,42.07
2023-05-13T21:02:40.749Z,42.22
2023-05-13T21:05:09.790Z,42.44
2023-05-13T21:07:38.728Z,42.50
2023-05-13T21:10:12.261Z,42.68
2023-05-13T21:13:09.924Z,42.84
2023-05-13T21:15:38.285Z,42.67
2023-05-13T21:18:15.823Z,42.63
2023-05-13T21:23:36.788Z,42.66
2023-05-13T21:26:25.720Z,42.71
2023-05-13T21:28:58.588Z,42.69
2023-05-13T21:31:27.169Z,42.83
2023-05-13T21:33:55.524Z,42.89
2023-05-13T21:36:23.805Z,42.99
2023-05-13T21:38:53.623Z,43.01
2023-05-13T21:41:22.255Z,43.29
2023-05-13T21:43:50.604Z,43.62
2023-05-13T21:46:18.940Z,43.49
2023-05-13T21:48:47.528Z,43.50
2023-05-13T21:51:18.205Z,43.44
2023-05-13T21:53:46.542Z,43.53
2023-05-13T21:56:14.862Z,43.56
2023-05-13T21:58:44.042Z,43.63
2023-05-13T22:01:12.712Z,43.67
2023-05-13T22:03:41.826Z,43.97
2023-05-13T22:09:58.814Z,44.34
2023-05-13T22:12:27.377Z,44.41
2023-05-13T22:14:56.744Z,44.42
2023-05-13T22:17:50.996Z,44.28
2023-05-13T22:20:24.752Z,44.34
2023-05-13T22:22:54.680Z,44.44
2023-05-13T22:25:23.588Z,44.68
2023-05-13T22:27:51.848Z,44.47
2023-05-13T22:30:20.711Z,44.35
2023-05-13T22:32:52.034Z,44.50
2023-05-13T22:35:24.109Z,44.57
2023-05-13T22:38:16.156Z,44.62
2023-05-13T22:40:48.596Z,44.61
2023-05-13T22:43:17.425Z,44.51
2023-05-13T22:45:45.798Z,44.45
2023-05-13T22:48:21.257Z,44.33
2023-05-13T22:50:59.782Z,44.43
2023-05-13T22:53:37.180Z,44.31
2023-05-13T23:00:45.589Z,44.21
2023-05-13T23:03:13.793Z,44.19
2023-05-13T23:05:42.111Z,44.06
2023-05-13T23:08:10.433Z,43.93
2023-05-13T23:10:38.938Z,43.93
2023-05-13T23:13:07.203Z,43.98
2023-05-13T23:15:37.536Z,44.14
2023-05-13T23:18:06.177Z,44.28
2023-05-13T23:20:34.412Z,44.39
2023-05-13T23:23:28.447Z,44.20
2023-05-13T23:26:57.957Z,44.02
2023-05-13T23:29:42.417Z,44.22
2023-05-13T23:32:36.451Z,44.20
2023-05-13T23:49:16.238Z,44.85
2023-05-13T23:51:54.775Z,44.88
2023-05-13T23:57:21.068Z,45.14
